ジャージー島 の空港の天気 - METARとTAF

ジャージー空港 ( EGJJ / JER ) - ジャージー島 ジャージー島
飛行場実況気象(Metar)
観測時間07/05 03:50 BST (07/05 02:50 UTC)
風向・風速北北西 3m/s
視程10km以上
天気現象
なし
気温13℃
湿度88%
気圧1025hPa
METAREGJJ 050250Z AUTO 33005KT 290V010 9999 NCD 13/11 Q1025
過去の天気等 Google飛行場航空写真 Wunderground天気予報

過去48時間のMETAR

飛行場予報(TAF)
発表時間: 7/05 02:58 BST (7/05 01:58 UTC)
予報対象時間: 5日4時 BST ~ 5日13時 BST
風向・風速北北西 4m/s
視程10km以上
少しの雲 雲底高度 460m
TAF EGJJ 050158Z 0503/0512 33007KT 9999 FEW015